createdAt,value
2023-05-05T00:00:13.758Z,67.6108
2023-05-05T00:01:14.809Z,68.3109
2023-05-05T00:02:15.424Z,67.9273
2023-05-05T00:03:16.730Z,68.5024
2023-05-05T00:04:18.039Z,68.0721
2023-05-05T00:05:18.293Z,68.1208
2023-05-05T00:06:18.840Z,67.4866
2023-05-05T00:07:19.366Z,67.3719
2023-05-05T00:08:19.678Z,67.7154
2023-05-05T00:09:20.233Z,67.6739
2023-05-05T00:10:21.108Z,67.5117
2023-05-05T00:11:22.177Z,67.7033
2023-05-05T00:12:22.752Z,68.4277
2023-05-05T00:13:23.906Z,69.0374
2023-05-05T00:14:24.702Z,69.0571
2023-05-05T00:15:25.265Z,69.3756
2023-05-05T00:16:26.065Z,69.6558
2023-05-05T00:17:26.985Z,70.0282
2023-05-05T00:18:28.135Z,70.0825
2023-05-05T00:19:28.868Z,70.2966
2023-05-05T00:20:30.070Z,70.6349
2023-05-05T00:21:30.842Z,70.9184
2023-05-05T00:22:31.664Z,70.8889
2023-05-05T00:23:32.228Z,70.8201
2023-05-05T00:24:32.881Z,71.2836
2023-05-05T00:25:33.534Z,71.5844
2023-05-05T00:26:34.265Z,71.7035
2023-05-05T00:27:35.079Z,71.9749
2023-05-05T00:28:35.635Z,72.2650
2023-05-05T00:29:36.427Z,72.2231
2023-05-05T00:30:37.330Z,71.9916
2023-05-05T00:31:38.190Z,71.5665
2023-05-05T00:32:39.155Z,71.2278
2023-05-05T00:33:39.786Z,71.4260
2023-05-05T00:34:40.648Z,71.5269
2023-05-05T00:35:41.558Z,71.4568
2023-05-05T00:36:43.289Z,71.5098
2023-05-05T00:37:43.320Z,71.5752
2023-05-05T00:38:44.078Z,71.2943
2023-05-05T00:39:45.009Z,71.1612
2023-05-05T00:40:45.929Z,70.9780
2023-05-05T00:41:46.637Z,70.5996
2023-05-05T00:42:47.538Z,70.7685
2023-05-05T00:43:48.382Z,70.3928
2023-05-05T00:44:48.970Z,70.9252
2023-05-05T00:45:49.610Z,70.7438
2023-05-05T00:46:50.643Z,70.9359
2023-05-05T00:47:51.825Z,70.9199
2023-05-05T00:48:53.918Z,70.9923
2023-05-05T00:49:53.577Z,71.8459
2023-05-05T00:50:54.483Z,71.5655
2023-05-05T00:51:55.331Z,71.9770
2023-05-05T00:52:56.016Z,72.0963
2023-05-05T00:53:56.963Z,72.2685
2023-05-05T00:54:57.617Z,72.4076
2023-05-05T00:55:58.344Z,73.0074
2023-05-05T00:56:59.269Z,72.9698
2023-05-05T00:57:59.882Z,73.1577
2023-05-05T00:59:01.470Z,72.8982
2023-05-05T01:00:01.207Z,72.9144
2023-05-05T01:01:01.929Z,73.1548
2023-05-05T01:02:02.796Z,73.4510
2023-05-05T01:04:22.425Z,73.9872
2023-05-05T01:05:23.413Z,74.2003
2023-05-05T01:11:30.482Z,72.0712
2023-05-05T01:12:31.813Z,71.4967
2023-05-05T01:18:37.687Z,70.1822
2023-05-05T01:19:38.273Z,70.2366
2023-05-05T01:20:39.394Z,70.1228
2023-05-05T01:21:39.720Z,70.4759
2023-05-05T01:22:40.871Z,70.7444
2023-05-05T01:23:41.694Z,70.9490
2023-05-05T01:24:43.325Z,71.4163
2023-05-05T01:25:43.449Z,71.6088
2023-05-05T01:26:44.260Z,71.7891
2023-05-05T01:27:45.045Z,72.1560
2023-05-05T01:30:47.184Z,73.4113
2023-05-05T01:31:48.303Z,73.8070
2023-05-05T01:36:51.868Z,75.3787
2023-05-05T01:37:51.911Z,75.0224
2023-05-05T01:38:51.981Z,75.3368
2023-05-05T01:39:52.430Z,75.2818
2023-05-05T01:40:53.636Z,75.7595
2023-05-05T01:41:55.793Z,75.4842
2023-05-05T01:42:58.013Z,75.8121
2023-05-05T01:44:00.275Z,76.0266
2023-05-05T01:45:02.319Z,76.0982
2023-05-05T01:46:03.449Z,76.1986
2023-05-05T01:47:04.491Z,76.3456
2023-05-05T01:54:15.317Z,75.4103
2023-05-05T02:00:19.223Z,74.5592
2023-05-05T02:01:19.766Z,74.5036
2023-05-05T02:03:20.976Z,74.6711
2023-05-05T02:04:22.030Z,74.6569
2023-05-05T02:05:22.887Z,73.8799
2023-05-05T02:06:22.973Z,73.8170
2023-05-05T02:07:24.647Z,73.6851
2023-05-05T02:08:24.344Z,73.4867
2023-05-05T02:09:25.332Z,72.9214
2023-05-05T02:10:26.071Z,72.3430
2023-05-05T02:11:26.115Z,71.9245
2023-05-05T02:12:29.661Z,70.9481
2023-05-05T02:13:26.841Z,69.5245
2023-05-05T02:14:27.137Z,69.5176
2023-05-05T02:15:27.952Z,69.2491
2023-05-05T02:16:29.119Z,68.9533
2023-05-05T02:17:30.086Z,69.3194
2023-05-05T02:18:30.849Z,69.4650
2023-05-05T02:19:31.681Z,69.7686
2023-05-05T02:20:31.770Z,69.9987
2023-05-05T02:21:32.693Z,69.5577
2023-05-05T02:22:33.552Z,69.3194
2023-05-05T02:23:34.311Z,69.1298
2023-05-05T02:24:35.104Z,68.4409
2023-05-05T02:25:36.399Z,67.9866
2023-05-05T02:26:37.280Z,67.9781
2023-05-05T02:27:38.256Z,67.9188
2023-05-05T02:28:38.938Z,67.9635
2023-05-05T02:29:40.241Z,68.1598
2023-05-05T02:30:40.637Z,68.2149
2023-05-05T02:31:41.670Z,68.4043
2023-05-05T02:32:42.927Z,68.4216
2023-05-05T02:33:43.828Z,69.1133
2023-05-05T02:34:44.540Z,69.1530
2023-05-05T02:35:45.493Z,69.1028
2023-05-05T02:36:46.260Z,69.1263
2023-05-05T02:37:47.122Z,69.3208
2023-05-05T02:38:48.120Z,69.6106
2023-05-05T02:39:48.751Z,69.8096
2023-05-05T02:42:50.067Z,70.9354
2023-05-05T02:44:50.394Z,72.3949
2023-05-05T02:45:51.380Z,72.9392
2023-05-05T02:46:52.534Z,73.3177
2023-05-05T02:47:53.717Z,73.3905
2023-05-05T02:48:54.204Z,73.6134
2023-05-05T02:49:55.409Z,74.2756
2023-05-05T02:50:55.371Z,74.6122
2023-05-05T02:51:56.000Z,74.8049
2023-05-05T02:52:56.690Z,74.9701
2023-05-05T02:53:57.554Z,75.0973
2023-05-05T02:54:57.921Z,75.4433
2023-05-05T02:55:58.365Z,75.6012
2023-05-05T02:56:59.541Z,75.5283
2023-05-05T02:58:00.426Z,75.3237
2023-05-05T02:59:01.268Z,75.5285
2023-05-05T03:00:01.321Z,75.4225
2023-05-05T03:01:01.985Z,75.5136
2023-05-05T03:02:02.217Z,75.5926
2023-05-05T03:03:03.594Z,75.6338
2023-05-05T03:04:03.775Z,75.8123
2023-05-05T03:05:04.643Z,75.6284
2023-05-05T03:06:05.548Z,75.7729
2023-05-05T03:07:06.455Z,75.9695
2023-05-05T03:08:07.354Z,76.1254
2023-05-05T03:09:08.227Z,76.3226
2023-05-05T03:10:09.444Z,76.2253
2023-05-05T03:11:09.268Z,75.8540
2023-05-05T03:12:10.065Z,75.7446
2023-05-05T03:13:11.368Z,75.7290
2023-05-05T03:14:12.154Z,76.1133
2023-05-05T03:15:13.087Z,76.5666
2023-05-05T03:16:14.132Z,76.3892
2023-05-05T03:17:15.057Z,76.4440
2023-05-05T03:18:16.398Z,76.5173
2023-05-05T03:19:17.092Z,76.3386
2023-05-05T03:20:17.404Z,76.3177
2023-05-05T03:21:18.445Z,76.3620
2023-05-05T03:22:19.158Z,76.0272
2023-05-05T03:23:20.355Z,75.1824
2023-05-05T03:24:20.224Z,74.6152
2023-05-05T03:25:20.991Z,74.1687
2023-05-05T03:26:21.659Z,73.6236
2023-05-05T03:27:22.544Z,73.3337
2023-05-05T03:28:23.732Z,73.0873
2023-05-05T03:29:23.950Z,73.1781
2023-05-05T03:30:24.001Z,73.3119
2023-05-05T03:31:24.489Z,73.5838
2023-05-05T03:34:17.766Z,73.4258
2023-05-05T03:35:18.643Z,73.2118
2023-05-05T03:36:19.471Z,73.1581
2023-05-05T03:37:20.350Z,72.9384
2023-05-05T03:38:21.217Z,72.9299
2023-05-05T03:39:21.904Z,72.7378
2023-05-05T03:40:29.618Z,72.8876
2023-05-05T03:41:23.516Z,72.6568
2023-05-05T03:42:24.155Z,72.8239
2023-05-05T03:43:24.974Z,72.9907
2023-05-05T03:44:25.709Z,72.9165
2023-05-05T03:45:26.659Z,72.7194
2023-05-05T03:46:27.674Z,72.7225
2023-05-05T03:47:29.623Z,72.8641
2023-05-05T03:49:30.320Z,72.6959
2023-05-05T03:50:30.466Z,72.7099
2023-05-05T03:51:31.023Z,72.7253
2023-05-05T03:52:31.553Z,72.5434
2023-05-05T03:53:32.377Z,72.2139
2023-05-05T03:54:33.671Z,72.3434
2023-05-05T03:55:34.699Z,72.4085
2023-05-05T03:56:35.978Z,72.3121
2023-05-05T03:57:36.757Z,72.1495
2023-05-05T03:58:37.256Z,72.0180
2023-05-05T03:59:38.267Z,72.0899
2023-05-05T04:00:39.603Z,72.0826
2023-05-05T04:01:40.527Z,72.4392
2023-05-05T04:02:41.346Z,72.5570
2023-05-05T04:03:43.329Z,72.7388
2023-05-05T04:04:44.702Z,72.8158
2023-05-05T04:05:44.846Z,72.7992
2023-05-05T04:06:46.813Z,72.8792
2023-05-05T04:07:47.890Z,73.1278
2023-05-05T04:08:48.718Z,73.3409
2023-05-05T04:09:49.600Z,73.3470
2023-05-05T04:10:49.645Z,73.2902
2023-05-05T04:11:49.859Z,73.0998
2023-05-05T04:12:51.031Z,72.9970
2023-05-05T04:13:52.053Z,73.0126
2023-05-05T04:14:52.689Z,73.3943
2023-05-05T04:16:53.321Z,73.6495
2023-05-05T04:17:53.565Z,73.7433
2023-05-05T04:18:54.538Z,73.8609
2023-05-05T04:19:55.374Z,74.6511
2023-05-05T04:20:55.408Z,75.3436
2023-05-05T04:21:55.901Z,75.4502
2023-05-05T04:22:58.248Z,75.4700
2023-05-05T04:23:59.144Z,75.7982
2023-05-05T04:25:00.301Z,76.2213
2023-05-05T04:26:01.135Z,76.3363
2023-05-05T04:27:02.055Z,76.5968
2023-05-05T04:29:02.815Z,76.5998
2023-05-05T04:30:03.854Z,76.6563
2023-05-05T04:32:04.459Z,76.6778
2023-05-05T04:33:04.612Z,77.1763
2023-05-05T04:34:05.408Z,76.8649
2023-05-05T04:35:06.431Z,76.2130
2023-05-05T04:36:07.472Z,75.5267
2023-05-05T04:37:08.304Z,76.3924
2023-05-05T04:38:09.365Z,76.0290
2023-05-05T04:39:10.522Z,76.0466
2023-05-05T04:40:11.352Z,75.7454
2023-05-05T04:41:12.338Z,74.4853
2023-05-05T04:42:12.533Z,74.5441
2023-05-05T04:43:13.500Z,74.6433
2023-05-05T04:44:14.533Z,74.5576
2023-05-05T04:45:15.295Z,74.2288
2023-05-05T04:46:16.326Z,73.3690
2023-05-05T04:47:16.302Z,73.2062
2023-05-05T04:48:16.343Z,73.3675
2023-05-05T04:49:17.514Z,73.3581
2023-05-05T04:50:17.501Z,73.9043
2023-05-05T04:51:18.456Z,74.2068
2023-05-05T04:52:19.329Z,74.1730
2023-05-05T04:53:20.187Z,74.3113
2023-05-05T04:54:21.201Z,74.5955
2023-05-05T04:55:22.003Z,74.7320
2023-05-05T04:56:22.979Z,74.7798
2023-05-05T04:57:24.016Z,75.1689
2023-05-05T04:58:24.893Z,75.1779
2023-05-05T04:59:25.887Z,75.7385
2023-05-05T05:00:26.668Z,76.2427
2023-05-05T05:01:27.860Z,76.2841
2023-05-05T05:02:28.286Z,76.3743
2023-05-05T05:03:28.489Z,76.0101
2023-05-05T05:04:28.811Z,75.1903
2023-05-05T05:05:29.789Z,75.0563
2023-05-05T05:06:30.777Z,75.0300
2023-05-05T05:07:30.818Z,74.8859
2023-05-05T05:08:31.680Z,74.9084
2023-05-05T05:09:32.633Z,74.4919
2023-05-05T05:10:33.600Z,75.1190
2023-05-05T05:11:34.967Z,75.2630
2023-05-05T05:12:35.115Z,75.2028
2023-05-05T05:13:35.407Z,75.1591
2023-05-05T05:14:36.423Z,75.3376
2023-05-05T05:15:36.812Z,75.5514
2023-05-05T05:16:37.094Z,75.6759
2023-05-05T05:17:38.197Z,76.1332
2023-05-05T05:18:39.662Z,76.6573
2023-05-05T05:19:40.079Z,77.2514
2023-05-05T05:20:40.756Z,77.7695
2023-05-05T05:21:40.891Z,78.4616
2023-05-05T05:22:41.519Z,78.9556
2023-05-05T05:23:42.080Z,79.0142
2023-05-05T05:24:43.231Z,79.0002
2023-05-05T05:25:43.315Z,79.4767
2023-05-05T05:26:44.607Z,80.4809
2023-05-05T05:27:50.172Z,80.6695
2023-05-05T05:28:45.870Z,80.9873
2023-05-05T05:29:46.748Z,80.9437
2023-05-05T05:30:47.486Z,80.6761
2023-05-05T05:31:47.478Z,80.6645
2023-05-05T05:32:49.102Z,80.5837
2023-05-05T05:33:49.085Z,80.6306
2023-05-05T05:34:49.925Z,80.6271
2023-05-05T05:35:50.065Z,80.6566
2023-05-05T05:36:51.069Z,80.6416
2023-05-05T05:37:51.107Z,80.7256
2023-05-05T05:38:52.396Z,80.5704
2023-05-05T05:39:53.443Z,80.7254
2023-05-05T05:40:53.976Z,80.7749
2023-05-05T05:41:54.886Z,80.8667
2023-05-05T05:42:56.265Z,80.8553
2023-05-05T05:43:57.318Z,80.6779
2023-05-05T05:44:58.147Z,80.4683
2023-05-05T05:45:58.317Z,80.4606
2023-05-05T05:46:58.909Z,80.3375
2023-05-05T05:48:00.045Z,80.1263
2023-05-05T05:49:00.019Z,80.0209
2023-05-05T05:50:01.229Z,79.8143
2023-05-05T05:51:02.448Z,79.5060
2023-05-05T05:52:02.290Z,79.8792
2023-05-05T05:53:02.952Z,79.6717
2023-05-05T05:54:04.159Z,77.3237
2023-05-05T05:55:05.090Z,76.7141
2023-05-05T05:56:06.301Z,76.7899
2023-05-05T05:57:07.597Z,77.0832
2023-05-05T05:58:08.484Z,76.6065
2023-05-05T05:59:09.537Z,76.7756
2023-05-05T06:00:11.662Z,76.5124
2023-05-05T06:01:12.505Z,75.5117
2023-05-05T06:02:13.885Z,74.7031
2023-05-05T06:03:14.876Z,73.3659
2023-05-05T06:04:15.955Z,72.4728
2023-05-05T06:05:15.887Z,72.3720
2023-05-05T06:06:16.762Z,72.4475
2023-05-05T06:07:17.740Z,72.7948
2023-05-05T06:08:19.070Z,73.5089
2023-05-05T06:09:19.936Z,73.3389
2023-05-05T06:10:28.047Z,73.9813
2023-05-05T06:11:24.873Z,74.9473
2023-05-05T06:12:25.703Z,75.5501
2023-05-05T06:13:25.867Z,75.6780
2023-05-05T06:14:26.516Z,75.9776
2023-05-05T06:15:27.650Z,76.4986
2023-05-05T06:16:29.020Z,75.4045
2023-05-05T06:17:30.046Z,73.9648
2023-05-05T06:18:30.854Z,73.4434
2023-05-05T06:19:31.693Z,71.9097
2023-05-05T06:20:32.681Z,70.5353
2023-05-05T06:21:33.701Z,71.3479
2023-05-05T06:22:34.645Z,71.8781
2023-05-05T06:23:35.629Z,71.2179
2023-05-05T06:24:36.636Z,71.6607
2023-05-05T06:25:37.544Z,70.5641
2023-05-05T06:26:38.547Z,69.4088
2023-05-05T06:27:39.493Z,69.5073
2023-05-05T06:28:40.669Z,69.6109
2023-05-05T06:29:41.798Z,69.5271
2023-05-05T06:30:43.049Z,69.5560
2023-05-05T06:31:44.327Z,69.2168
2023-05-05T06:32:45.480Z,68.1676
2023-05-05T06:33:46.525Z,68.5609
2023-05-05T06:34:46.632Z,68.8676
2023-05-05T06:35:47.824Z,69.2542
2023-05-05T06:36:48.214Z,69.6429
2023-05-05T06:37:50.259Z,68.9098
2023-05-05T06:40:50.534Z,69.1558
2023-05-05T06:41:51.882Z,67.9712
2023-05-05T06:42:53.050Z,66.5259
2023-05-05T06:43:54.549Z,67.4225
2023-05-05T06:44:55.003Z,67.9786
2023-05-05T06:45:56.191Z,68.8793
2023-05-05T06:46:56.219Z,68.3540
2023-05-05T06:47:57.643Z,67.4337
2023-05-05T06:48:57.597Z,66.8888
2023-05-05T06:49:58.717Z,66.5547
2023-05-05T06:50:59.417Z,66.1637
2023-05-05T06:52:00.097Z,64.9303
2023-05-05T06:53:01.109Z,64.7321
2023-05-05T06:54:02.331Z,65.3808
2023-05-05T06:55:02.984Z,65.7867
2023-05-05T06:56:04.124Z,65.1256
2023-05-05T06:57:04.269Z,65.6128
2023-05-05T06:58:05.230Z,65.4445
2023-05-05T06:59:06.426Z,65.8896
2023-05-05T07:00:07.832Z,65.1227
2023-05-05T07:01:08.111Z,63.3485
2023-05-05T07:02:08.184Z,64.7959
2023-05-05T07:03:08.302Z,65.7537
2023-05-05T07:04:08.549Z,65.3402
2023-05-05T07:05:09.648Z,64.7658
2023-05-05T07:06:10.747Z,65.5265
2023-05-05T07:07:12.012Z,65.1783
2023-05-05T07:08:13.085Z,64.6683
2023-05-05T07:09:15.755Z,66.4956
2023-05-05T07:10:15.653Z,66.3613
2023-05-05T07:11:16.422Z,65.4920
2023-05-05T07:12:17.622Z,66.0097
2023-05-05T07:13:19.001Z,65.4816
2023-05-05T07:14:19.041Z,65.5282
2023-05-05T07:15:29.096Z,65.5568
2023-05-05T07:16:24.623Z,64.8199
2023-05-05T07:17:25.864Z,64.8640
2023-05-05T07:18:25.872Z,64.2008
2023-05-05T07:19:26.770Z,63.6116
2023-05-05T07:20:27.922Z,63.3848
2023-05-05T07:21:28.928Z,63.3852
2023-05-05T07:22:30.116Z,63.5445
2023-05-05T07:23:31.265Z,63.2880
2023-05-05T07:24:32.261Z,62.9990
2023-05-05T07:25:33.399Z,63.0451
2023-05-05T07:26:34.711Z,62.4089
2023-05-05T07:27:35.811Z,62.9615
2023-05-05T07:28:36.930Z,63.4544
2023-05-05T07:29:37.833Z,63.4331
2023-05-05T07:30:38.260Z,62.6592
2023-05-05T07:31:39.547Z,62.7701
2023-05-05T07:32:39.614Z,62.4785
2023-05-05T07:33:40.761Z,62.4574
2023-05-05T07:34:41.626Z,62.6957
2023-05-05T07:35:42.597Z,62.0425
2023-05-05T07:36:43.756Z,62.4549
2023-05-05T07:37:44.718Z,62.1783
2023-05-05T07:38:44.965Z,62.2408
2023-05-05T07:39:45.939Z,62.6624
2023-05-05T07:40:46.649Z,62.7291
2023-05-05T07:41:47.811Z,62.5828
2023-05-05T07:42:48.826Z,62.7619
2023-05-05T07:43:49.951Z,62.5421
2023-05-05T07:44:50.957Z,62.3605
2023-05-05T07:45:52.133Z,62.5196
2023-05-05T07:46:52.137Z,62.6058
2023-05-05T07:47:53.249Z,62.0016
2023-05-05T07:49:54.211Z,62.3820
2023-05-05T07:50:54.619Z,62.8335
2023-05-05T07:51:55.873Z,62.2966
2023-05-05T07:53:02.525Z,61.7295
2023-05-05T07:53:56.873Z,62.4081
2023-05-05T07:54:57.074Z,62.3054
2023-05-05T07:55:58.079Z,62.8133
2023-05-05T07:56:59.023Z,62.1729
2023-05-05T07:58:00.200Z,62.0019
2023-05-05T07:59:01.299Z,62.0940
2023-05-05T08:00:02.151Z,62.2030
2023-05-05T08:01:02.226Z,62.2045
2023-05-05T08:02:03.138Z,62.0636
2023-05-05T08:03:03.878Z,61.9409
2023-05-05T08:04:04.938Z,62.5181
2023-05-05T08:05:05.060Z,62.3496
2023-05-05T08:06:04.990Z,61.9370
2023-05-05T08:07:06.102Z,61.9393
2023-05-05T08:08:06.706Z,62.2294
2023-05-05T08:09:07.624Z,62.4595
2023-05-05T08:10:08.916Z,62.8657
2023-05-05T08:11:10.037Z,62.2551
2023-05-05T08:12:10.763Z,62.0693
2023-05-05T08:13:11.071Z,61.9325
2023-05-05T08:14:12.289Z,61.9087
2023-05-05T08:15:12.588Z,62.3140
2023-05-05T08:16:12.708Z,62.4430
2023-05-05T08:17:13.845Z,61.9733
2023-05-05T08:18:14.017Z,62.6227
2023-05-05T08:19:27.566Z,62.9537
2023-05-05T08:20:14.638Z,62.8427
2023-05-05T08:21:14.744Z,62.5978
2023-05-05T08:22:15.881Z,62.7765
2023-05-05T08:23:16.010Z,63.0773
2023-05-05T08:24:17.403Z,62.2090
2023-05-05T08:25:18.667Z,62.0444
2023-05-05T08:26:18.845Z,61.8586
2023-05-05T08:27:19.812Z,61.7996
2023-05-05T08:28:19.895Z,61.0168
2023-05-05T08:29:20.913Z,60.8806
2023-05-05T08:30:20.963Z,60.0113
2023-05-05T08:31:22.211Z,59.3363
2023-05-05T08:34:23.877Z,59.9083
2023-05-05T08:35:24.301Z,59.9204
2023-05-05T08:36:25.543Z,59.8131
2023-05-05T08:37:26.558Z,59.8092
2023-05-05T08:38:27.720Z,59.6026
2023-05-05T08:39:27.998Z,59.0370
2023-05-05T08:40:28.584Z,58.8193
2023-05-05T08:41:29.640Z,58.9658
2023-05-05T08:42:36.937Z,58.8317
2023-05-05T08:43:31.931Z,58.9401
2023-05-05T08:44:33.150Z,59.6094
2023-05-05T08:45:34.059Z,59.3886
2023-05-05T08:46:35.265Z,58.9444
2023-05-05T08:47:35.496Z,58.3845
2023-05-05T08:48:35.734Z,58.6711
2023-05-05T08:50:36.732Z,58.6730
2023-05-05T08:51:37.503Z,59.0173
2023-05-05T08:52:39.080Z,58.2377
2023-05-05T08:53:40.164Z,59.1972
2023-05-05T08:54:40.221Z,58.7811
2023-05-05T08:55:40.695Z,59.1812
2023-05-05T08:56:41.984Z,58.3984
2023-05-05T08:57:43.406Z,58.5233
2023-05-05T08:58:44.386Z,58.1252
2023-05-05T08:59:44.453Z,57.3288
2023-05-05T09:00:45.735Z,57.6742
2023-05-05T09:01:45.990Z,57.3800
2023-05-05T09:02:46.242Z,58.0606
2023-05-05T09:03:47.266Z,58.4949
2023-05-05T09:04:48.556Z,58.8040
2023-05-05T09:05:49.049Z,58.8747
2023-05-05T09:06:49.131Z,58.9123
2023-05-05T09:07:50.384Z,59.2939
2023-05-05T09:08:51.676Z,59.5898
2023-05-05T09:09:51.693Z,58.9088
2023-05-05T09:10:51.997Z,59.2313
2023-05-05T09:11:53.162Z,59.3367
2023-05-05T09:12:53.251Z,59.4311
2023-05-05T09:13:53.462Z,59.0001
2023-05-05T09:14:53.402Z,58.6246
2023-05-05T09:15:53.538Z,59.1559
2023-05-05T09:16:53.547Z,59.2830
2023-05-05T09:17:53.767Z,57.7430
2023-05-05T09:18:54.982Z,57.5725
2023-05-05T09:19:55.046Z,57.3505
2023-05-05T09:20:58.143Z,57.5858
2023-05-05T09:21:56.743Z,58.2165
2023-05-05T09:22:57.976Z,58.1179
2023-05-05T09:24:04.897Z,58.7835
2023-05-05T09:24:59.700Z,58.1769
2023-05-05T09:25:59.917Z,58.3344
2023-05-05T09:27:01.356Z,58.2592
2023-05-05T09:28:01.327Z,58.7970
2023-05-05T09:29:01.418Z,57.4488
2023-05-05T09:30:02.653Z,56.5572
2023-05-05T09:31:02.736Z,56.8344
2023-05-05T09:32:02.828Z,56.6194
2023-05-05T09:33:03.559Z,56.4799
2023-05-05T09:34:04.720Z,56.5675
2023-05-05T09:35:04.730Z,56.3281
2023-05-05T09:36:04.877Z,56.3527
2023-05-05T09:37:06.370Z,56.5044
2023-05-05T09:38:07.017Z,56.5928
2023-05-05T09:39:07.280Z,57.2440
2023-05-05T09:40:07.389Z,57.8756
2023-05-05T09:41:08.637Z,58.5356
2023-05-05T09:42:09.910Z,58.2485
2023-05-05T09:43:10.073Z,58.3527
2023-05-05T09:44:10.164Z,57.8168
2023-05-05T09:45:11.342Z,57.3664
2023-05-05T09:46:11.545Z,57.2923
2023-05-05T09:47:28.989Z,57.4204
2023-05-05T09:48:17.325Z,57.6091
2023-05-05T09:49:17.453Z,57.5910
2023-05-05T09:50:17.757Z,57.6598
2023-05-05T09:51:17.843Z,57.7700
2023-05-05T09:52:17.863Z,58.2990
2023-05-05T09:53:18.177Z,58.1893
2023-05-05T09:54:18.278Z,57.7316
2023-05-05T09:55:18.650Z,56.8412
2023-05-05T09:56:19.119Z,56.4081
2023-05-05T09:57:20.404Z,55.9209
2023-05-05T09:58:20.703Z,55.1354
2023-05-05T09:59:20.629Z,55.0097
2023-05-05T10:00:21.293Z,54.9039
2023-05-05T10:01:21.266Z,54.8772
2023-05-05T10:02:21.598Z,54.9201
2023-05-05T10:03:21.722Z,54.7685
2023-05-05T10:04:21.879Z,55.1216
2023-05-05T10:05:22.110Z,55.8871
2023-05-05T10:06:22.396Z,55.6671
2023-05-05T10:07:23.685Z,55.9870
2023-05-05T10:08:23.712Z,55.5847
2023-05-05T10:09:25.323Z,54.4409
2023-05-05T10:10:26.920Z,54.0339
2023-05-05T10:11:25.865Z,54.3725
2023-05-05T10:12:27.021Z,55.7817
2023-05-05T10:13:27.361Z,56.2551
2023-05-05T10:14:28.612Z,55.9018
2023-05-05T10:15:28.899Z,54.0297
2023-05-05T10:16:29.712Z,54.0250
2023-05-05T10:17:30.282Z,54.0437
2023-05-05T10:18:30.947Z,53.5335
2023-05-05T10:19:30.873Z,53.4740
2023-05-05T10:20:31.087Z,53.4116
2023-05-05T10:21:31.140Z,53.6004
2023-05-05T10:22:31.325Z,54.0528
2023-05-05T10:23:31.464Z,55.0459
2023-05-05T10:24:31.746Z,56.5644
2023-05-05T10:27:33.220Z,53.5107
2023-05-05T10:28:33.347Z,54.6228
2023-05-05T10:29:34.827Z,53.5531
2023-05-05T10:30:35.417Z,54.1929
2023-05-05T10:31:35.551Z,53.4926
2023-05-05T10:33:42.679Z,53.0056
2023-05-05T10:34:43.809Z,52.6255
2023-05-05T10:35:45.028Z,52.4925
2023-05-05T10:36:45.333Z,52.3848
2023-05-05T10:37:45.242Z,52.5245
2023-05-05T10:38:45.304Z,52.4832
2023-05-05T10:39:46.760Z,52.6872
2023-05-05T10:40:47.625Z,52.6987
2023-05-05T10:41:48.004Z,52.5967
2023-05-05T10:42:48.004Z,52.2850
2023-05-05T10:43:48.171Z,52.2939
2023-05-05T10:44:48.286Z,52.4376
2023-05-05T10:45:49.115Z,52.2301
2023-05-05T10:46:49.663Z,52.5912
2023-05-05T10:47:50.118Z,53.2348
2023-05-05T10:48:50.744Z,52.8684
2023-05-05T10:49:50.689Z,53.2402
2023-05-05T10:50:50.823Z,52.9275
2023-05-05T10:51:51.407Z,52.5506
2023-05-05T10:52:51.683Z,52.5127
2023-05-05T10:53:52.978Z,52.1572
2023-05-05T10:54:53.418Z,52.0370
2023-05-05T10:55:53.386Z,51.5756
2023-05-05T10:56:53.820Z,51.5658
2023-05-05T10:57:53.831Z,51.4332
2023-05-05T10:59:00.141Z,51.5785
2023-05-05T10:59:55.230Z,51.5867
2023-05-05T11:00:55.503Z,51.9157
2023-05-05T11:01:56.291Z,51.9368
2023-05-05T11:02:57.236Z,51.8060
2023-05-05T11:03:57.949Z,52.0253
2023-05-05T11:04:58.233Z,52.0941
2023-05-05T11:05:58.380Z,51.0349
2023-05-05T11:06:59.649Z,50.8975
2023-05-05T11:08:00.709Z,50.9445
2023-05-05T11:09:00.821Z,50.7313
2023-05-05T11:10:01.002Z,50.8941
2023-05-05T11:11:01.860Z,50.1888
2023-05-05T11:12:02.315Z,49.4366
2023-05-05T11:13:02.750Z,49.5118
2023-05-05T11:14:03.757Z,48.9150
2023-05-05T11:15:03.919Z,49.5037
2023-05-05T11:16:04.097Z,50.0486
2023-05-05T11:17:04.681Z,49.1864
2023-05-05T11:18:07.376Z,48.1613
2023-05-05T11:19:05.063Z,48.0434
2023-05-05T11:20:05.121Z,47.6681
2023-05-05T11:21:05.481Z,48.4471
2023-05-05T11:22:05.689Z,48.0669
2023-05-05T11:23:05.886Z,49.0918
2023-05-05T11:24:06.056Z,48.5344
2023-05-05T11:25:07.249Z,47.7263
2023-05-05T11:26:07.502Z,46.7583
2023-05-05T11:27:08.921Z,46.6183
2023-05-05T11:28:09.107Z,46.9920
2023-05-05T11:29:09.272Z,47.6442
2023-05-05T11:30:10.520Z,46.8328
2023-05-05T11:31:10.709Z,47.0714
2023-05-05T11:32:11.010Z,45.9731
2023-05-05T11:33:11.141Z,47.4174
2023-05-05T11:34:12.378Z,46.7931
2023-05-05T11:35:12.497Z,47.7605
2023-05-05T11:36:13.950Z,47.0282
2023-05-05T11:37:15.285Z,47.5038
2023-05-05T11:38:15.478Z,46.5491
2023-05-05T11:39:16.763Z,45.3601
2023-05-05T11:40:17.019Z,45.1968
2023-05-05T11:41:17.071Z,45.2331
2023-05-05T11:42:18.305Z,45.1504
2023-05-05T11:43:18.530Z,45.0443
2023-05-05T11:44:18.570Z,44.6170
2023-05-05T11:45:18.693Z,44.4758
2023-05-05T11:46:19.104Z,44.9376
2023-05-05T11:47:19.596Z,44.0780
2023-05-05T11:48:20.080Z,43.4742
2023-05-05T11:49:20.637Z,44.5449
2023-05-05T11:50:20.590Z,43.9047
2023-05-05T11:51:20.714Z,44.1413
2023-05-05T11:52:20.765Z,44.9028
2023-05-05T11:53:21.050Z,45.1246
2023-05-05T11:54:21.285Z,45.5023
2023-05-05T11:55:21.369Z,46.7605
2023-05-05T11:56:22.810Z,45.3884
2023-05-05T11:57:22.895Z,44.5121
2023-05-05T11:58:23.136Z,45.1464
2023-05-05T11:59:24.423Z,45.6734
2023-05-05T12:00:24.621Z,46.0145
2023-05-05T12:01:25.915Z,46.9876
2023-05-05T12:02:26.332Z,45.9958
2023-05-05T12:03:28.138Z,48.2153
2023-05-05T12:04:28.533Z,48.9497
2023-05-05T12:05:28.916Z,46.5556
2023-05-05T12:06:29.233Z,46.0612
2023-05-05T12:07:29.370Z,45.9894
2023-05-05T12:08:29.402Z,46.8094
2023-05-05T12:09:29.503Z,47.1672
2023-05-05T12:10:30.642Z,46.1124
2023-05-05T12:11:31.966Z,47.1504
2023-05-05T12:12:32.337Z,45.7488
2023-05-05T12:13:33.246Z,45.1767
2023-05-05T12:14:34.464Z,43.8465
2023-05-05T12:15:34.676Z,42.7724
2023-05-05T12:16:34.882Z,42.4091
2023-05-05T12:17:35.533Z,42.5740
2023-05-05T12:18:36.222Z,42.9659
2023-05-05T12:19:36.337Z,42.6178
2023-05-05T12:20:37.680Z,44.2076
2023-05-05T12:21:37.860Z,45.2723
2023-05-05T12:22:38.058Z,43.9895
2023-05-05T12:23:38.616Z,43.7705
2023-05-05T12:24:38.630Z,43.4600
2023-05-05T12:25:38.864Z,43.4287
2023-05-05T12:26:38.876Z,43.4752
2023-05-05T12:27:39.285Z,43.0141
2023-05-05T12:28:39.356Z,43.1662
2023-05-05T12:29:39.623Z,42.8513
2023-05-05T12:30:40.655Z,43.2049
2023-05-05T12:31:41.095Z,42.7725
2023-05-05T12:32:41.716Z,42.3036
2023-05-05T12:33:41.942Z,41.8913
2023-05-05T12:34:42.107Z,41.3263
2023-05-05T12:35:42.100Z,41.4566
2023-05-05T12:36:42.685Z,41.7892
2023-05-05T12:37:43.914Z,41.7444
2023-05-05T12:38:44.154Z,40.4158
2023-05-05T12:39:45.634Z,39.3934
2023-05-05T12:40:46.407Z,40.8388
2023-05-05T12:41:46.537Z,41.6175
2023-05-05T12:42:46.627Z,42.2011
2023-05-05T12:43:46.822Z,42.3980
2023-05-05T12:44:46.800Z,41.1327
2023-05-05T12:45:47.135Z,41.3031
2023-05-05T12:46:47.617Z,40.7502
2023-05-05T12:47:48.059Z,39.9668
2023-05-05T12:48:48.601Z,38.6851
2023-05-05T12:49:48.941Z,38.5002
2023-05-05T12:50:50.450Z,38.4415
2023-05-05T12:51:50.516Z,39.3627
2023-05-05T12:52:50.724Z,39.7373
2023-05-05T12:53:51.753Z,40.3142
2023-05-05T12:54:52.953Z,39.6557
2023-05-05T12:55:53.277Z,39.2048
2023-05-05T12:56:53.482Z,38.1536
2023-05-05T12:57:53.666Z,38.9035
2023-05-05T12:58:53.864Z,40.7870
2023-05-05T12:59:55.174Z,41.2145
2023-05-05T13:00:55.739Z,39.2806
2023-05-05T13:01:56.202Z,40.3582